createdAt,value
2022-12-11T00:03:15.801Z,0.32
2022-12-11T00:09:21.425Z,0.29
2022-12-11T00:15:23.363Z,0.30
2022-12-11T00:21:26.443Z,0.32
2022-12-11T00:27:28.604Z,0.36
2022-12-11T00:33:30.606Z,0.32
2022-12-11T00:39:44.635Z,0.36
2022-12-11T00:45:48.002Z,0.32
2022-12-11T00:51:49.965Z,0.31
2022-12-11T00:57:52.434Z,0.36
2022-12-11T01:03:54.382Z,0.05
2022-12-11T01:10:14.521Z,0.07
2022-12-11T01:16:16.570Z,0.09
2022-12-11T01:22:18.503Z,0.14
2022-12-11T01:28:20.406Z,0.13
2022-12-11T01:34:22.356Z,0.17
2022-12-11T01:40:24.394Z,0.14
2022-12-11T01:46:38.702Z,0.08
2022-12-11T01:52:43.215Z,-0.03
2022-12-11T01:58:54.770Z,-0.15
2022-12-11T02:04:57.157Z,-0.12
2022-12-11T02:11:26.443Z,-0.14
2022-12-11T02:18:14.706Z,-0.32
2022-12-11T02:25:05.078Z,-0.22
2022-12-11T02:31:29.826Z,-0.21
2022-12-11T02:37:35.744Z,-0.19
2022-12-11T02:43:39.308Z,-0.12
2022-12-11T02:49:45.558Z,0.07
2022-12-11T02:55:52.985Z,-0.02
2022-12-11T03:01:55.102Z,0.01
2022-12-11T03:07:57.329Z,0.01
2022-12-11T03:14:04.027Z,-0.01
2022-12-11T03:20:38.424Z,0.11
2022-12-11T03:26:46.465Z,0.12
2022-12-11T03:33:15.388Z,0.04
2022-12-11T03:39:32.056Z,0.10
2022-12-11T03:45:34.977Z,-0.07
2022-12-11T03:51:38.939Z,-0.01
2022-12-11T03:57:40.916Z,0.05
2022-12-11T04:03:42.905Z,0.03
2022-12-11T04:09:50.801Z,0.05
2022-12-11T04:15:52.744Z,0.02
2022-12-11T04:22:32.876Z,-0.04
2022-12-11T04:28:35.951Z,-0.04
2022-12-11T04:34:37.858Z,0.02
2022-12-11T04:40:40.204Z,0.02
2022-12-11T04:46:42.122Z,0.04
2022-12-11T04:52:50.869Z,-0.11
2022-12-11T04:58:52.733Z,-0.04
2022-12-11T05:04:54.614Z,-0.19
2022-12-11T05:10:57.499Z,-0.09
2022-12-11T05:17:00.425Z,0.05
2022-12-11T05:23:02.367Z,0.04
2022-12-11T05:29:04.312Z,-0.02
2022-12-11T05:35:06.648Z,0.08
2022-12-11T05:41:08.938Z,0.07
2022-12-11T05:47:13.915Z,0.01
2022-12-11T05:53:15.769Z,0.07
2022-12-11T05:59:24.530Z,0.05
2022-12-11T06:05:26.395Z,0.03
2022-12-11T06:11:37.126Z,0.03
2022-12-11T06:17:39.052Z,0.02
2022-12-11T06:23:44.825Z,0.01
2022-12-11T06:29:49.724Z,0.04
2022-12-11T06:36:07.140Z,0.04
2022-12-11T06:42:09.054Z,0.02
2022-12-11T06:48:14.617Z,0.05
2022-12-11T06:54:19.678Z,0.09
2022-12-11T07:00:21.823Z,0.04
2022-12-11T07:06:24.827Z,0.02
2022-12-11T07:18:50.171Z,-0.20
2022-12-11T07:24:54.881Z,-0.17
2022-12-11T07:30:56.738Z,0.10
2022-12-11T07:37:03.497Z,-0.02
2022-12-11T07:43:05.376Z,-0.20
2022-12-11T07:49:13.594Z,-0.08
2022-12-11T07:55:15.633Z,-0.10
2022-12-11T08:01:23.898Z,-0.17
2022-12-11T08:07:25.800Z,-0.12
2022-12-11T08:13:32.776Z,-0.08
2022-12-11T08:19:34.677Z,0.01
2022-12-11T08:25:40.204Z,-0.02
2022-12-11T08:31:42.528Z,0.15
2022-12-11T08:37:44.468Z,0.28
2022-12-11T08:43:46.764Z,0.19
2022-12-11T08:49:48.851Z,0.39
2022-12-11T08:55:50.746Z,0.28
2022-12-11T09:08:13.696Z,0.45
2022-12-11T09:14:24.647Z,0.54
2022-12-11T09:20:26.835Z,0.64
2022-12-11T09:26:34.901Z,0.78
2022-12-11T09:32:37.351Z,0.76
2022-12-11T09:38:39.570Z,0.82
2022-12-11T09:44:42.349Z,0.97
2022-12-11T09:50:51.550Z,1.07
2022-12-11T09:57:07.653Z,0.99
2022-12-11T10:03:45.660Z,1.12
2022-12-11T10:10:18.491Z,1.14
2022-12-11T10:16:50.858Z,1.16
2022-12-11T10:22:54.876Z,1.29
2022-12-11T10:29:01.019Z,1.22
2022-12-11T10:35:16.693Z,1.24
2022-12-11T10:41:24.903Z,1.06
2022-12-11T10:47:27.644Z,1.11
2022-12-11T10:53:32.109Z,1.19
2022-12-11T10:59:37.924Z,1.11
2022-12-11T11:05:41.004Z,1.25
2022-12-11T11:11:57.141Z,1.14
2022-12-11T11:18:12.755Z,1.23
2022-12-11T11:24:41.195Z,1.29
2022-12-11T11:31:12.224Z,1.26
2022-12-11T11:37:36.151Z,1.13
2022-12-11T11:44:02.897Z,1.10
2022-12-11T11:50:34.191Z,1.13
2022-12-11T11:56:37.939Z,1.08
2022-12-11T12:02:41.502Z,1.06
2022-12-11T12:08:58.307Z,1.10
2022-12-11T12:15:21.938Z,0.86
2022-12-11T12:21:35.515Z,0.86
2022-12-11T12:28:12.269Z,0.80
2022-12-11T12:34:51.911Z,0.88
2022-12-11T12:41:35.811Z,0.80
2022-12-11T12:47:38.988Z,0.78
2022-12-11T12:53:46.790Z,0.94
2022-12-11T12:59:55.591Z,1.06
2022-12-11T13:06:10.233Z,1.05
2022-12-11T13:12:29.966Z,1.06
2022-12-11T13:18:39.299Z,1.01
2022-12-11T13:25:16.872Z,1.05
2022-12-11T13:31:18.774Z,1.02
2022-12-11T13:37:43.451Z,0.99
2022-12-11T13:43:49.562Z,1.02
2022-12-11T13:50:22.965Z,1.00
2022-12-11T13:56:24.876Z,0.95
2022-12-11T14:02:45.358Z,0.79
2022-12-11T14:08:55.465Z,0.83
2022-12-11T14:15:14.000Z,0.66
2022-12-11T14:21:23.512Z,0.43
2022-12-11T14:27:34.572Z,0.41
2022-12-11T14:33:43.451Z,0.38
2022-12-11T14:40:22.989Z,0.26
2022-12-11T14:46:54.425Z,0.05
2022-12-11T14:53:02.632Z,-0.28
2022-12-11T14:59:18.885Z,-0.37
2022-12-11T15:05:21.736Z,-0.43
2022-12-11T15:11:30.152Z,-0.59
2022-12-11T15:17:34.534Z,-0.68
2022-12-11T15:23:55.918Z,-0.89
2022-12-11T15:29:58.059Z,-0.95
2022-12-11T15:36:40.256Z,-1.23
2022-12-11T15:42:42.638Z,-1.32
2022-12-11T15:48:57.664Z,-1.37
2022-12-11T15:54:59.535Z,-1.48
2022-12-11T16:01:26.877Z,-1.59
2022-12-11T16:07:29.008Z,-1.79
2022-12-11T16:13:31.025Z,-1.79
2022-12-11T16:19:38.255Z,-1.75
2022-12-11T16:25:42.165Z,-1.96
2022-12-11T16:31:50.295Z,-2.12
2022-12-11T16:37:53.701Z,-2.32
2022-12-11T16:44:06.626Z,-2.51
2022-12-11T16:50:09.478Z,-2.76
2022-12-11T16:56:20.793Z,-2.86
2022-12-11T17:02:22.818Z,-2.90
2022-12-11T17:08:25.698Z,-3.18
2022-12-11T17:14:28.295Z,-3.41
2022-12-11T17:20:30.182Z,-3.40
2022-12-11T17:26:41.901Z,-3.61
2022-12-11T17:32:48.619Z,-3.74
2022-12-11T17:38:59.924Z,-3.67
2022-12-11T17:45:02.152Z,-3.62
2022-12-11T17:51:07.153Z,-3.84
2022-12-11T17:57:09.063Z,-4.07
2022-12-11T18:03:11.724Z,-4.15
2022-12-11T18:09:25.868Z,-4.02
2022-12-11T18:15:27.907Z,-4.05
2022-12-11T18:21:34.396Z,-4.15
2022-12-11T18:27:36.298Z,-4.05
2022-12-11T18:33:40.680Z,-4.03
2022-12-11T18:39:42.582Z,-3.96
2022-12-11T18:45:45.549Z,-3.96
2022-12-11T18:51:49.382Z,-3.97
2022-12-11T18:57:51.289Z,-4.05
2022-12-11T19:04:02.427Z,-4.01
2022-12-11T19:10:07.079Z,-3.90
2022-12-11T19:16:25.850Z,-3.49
2022-12-11T19:22:40.140Z,-3.10
2022-12-11T19:28:42.739Z,-2.92
2022-12-11T19:34:44.632Z,-2.59
2022-12-11T19:40:46.510Z,-2.46
2022-12-11T19:46:48.458Z,-2.22
2022-12-11T19:52:50.408Z,-2.25
2022-12-11T19:58:54.629Z,-2.36
2022-12-11T20:04:56.521Z,-2.37
2022-12-11T20:11:12.819Z,-2.41
2022-12-11T20:17:17.869Z,-2.21
2022-12-11T20:23:19.837Z,-2.38
2022-12-11T20:29:21.743Z,-2.41
2022-12-11T20:35:29.807Z,-2.48
2022-12-11T20:41:31.693Z,-2.46
2022-12-11T20:47:33.596Z,-2.50
2022-12-11T20:53:36.963Z,-2.57
2022-12-11T20:59:39.005Z,-2.65
2022-12-11T21:05:53.751Z,-2.77
2022-12-11T21:11:58.239Z,-2.95
2022-12-11T21:18:00.113Z,-3.13
2022-12-11T21:24:07.108Z,-3.55
2022-12-11T21:30:15.368Z,-3.75
2022-12-11T21:36:17.981Z,-3.94
2022-12-11T21:42:19.862Z,-4.10
2022-12-11T21:48:21.745Z,-4.12
2022-12-11T21:54:23.848Z,-4.43
2022-12-11T22:00:25.817Z,-4.58
2022-12-11T22:06:27.736Z,-4.75
2022-12-11T22:12:29.703Z,-4.81
2022-12-11T22:18:31.741Z,-4.99
2022-12-11T22:24:33.623Z,-5.03
2022-12-11T22:30:36.698Z,-4.97
2022-12-11T22:36:38.648Z,-4.98
2022-12-11T22:42:40.637Z,-5.12
2022-12-11T22:48:42.721Z,-5.20
2022-12-11T22:54:44.880Z,-5.24
2022-12-11T23:00:47.012Z,-5.13
2022-12-11T23:06:48.993Z,-5.20
2022-12-11T23:12:51.202Z,-5.13
2022-12-11T23:18:54.258Z,-5.11
2022-12-11T23:24:59.380Z,-5.11
2022-12-11T23:31:01.885Z,-5.20
2022-12-11T23:37:04.149Z,-5.25
2022-12-11T23:43:06.014Z,-5.33
2022-12-11T23:49:17.326Z,-5.30
2022-12-11T23:55:19.456Z,-5.40
